Time;durP1;ratioP1;P1;durP2;ratioP2;P2;SDS_P1;SDS_P2;PMS_P1;PMS_P2;Temp;Humidity;BMP_temperature;BMP_pressure;BME280_temperature;BME280_humidity;BME280_pressure;Samples;Min_cycle;Max_cycle;Signal;HPM_P1;HPM_P2
2021/08/28 00:00:59;;;;;;;11.70;7.40;;;14.30;99.90;;;;;;5011551;28;20446;-65
2021/08/28 00:03:26;;;;;;;14.57;7.77;;;14.40;99.90;;;;;;5011907;28;20442;-64
2021/08/28 00:05:52;;;;;;;9.47;7.07;;;14.40;99.90;;;;;;5011896;28;20442;-65
2021/08/28 00:08:19;;;;;;;14.57;6.30;;;14.40;99.90;;;;;;5011635;28;20528;-64
2021/08/28 00:10:47;;;;;;;19.90;6.83;;;14.40;99.90;;;;;;5011423;28;20470;-64
2021/08/28 00:13:15;;;;;;;14.23;7.03;;;14.40;99.90;;;;;;5011429;28;20449;-64
2021/08/28 00:15:42;;;;;;;9.87;6.80;;;14.50;99.90;;;;;;5011782;28;20453;-63
2021/08/28 00:18:10;;;;;;;11.27;6.60;;;14.50;99.90;;;;;;5011629;28;20808;-64
2021/08/28 00:20:37;;;;;;;14.60;9.60;;;14.60;99.90;;;;;;5011274;28;20841;-64
2021/08/28 00:23:05;;;;;;;12.27;7.67;;;14.60;99.90;;;;;;5011507;28;20453;-65
2021/08/28 00:25:32;;;;;;;11.43;7.70;;;14.60;99.90;;;;;;5011638;28;20453;-65
2021/08/28 00:27:59;;;;;;;16.43;7.47;;;14.60;99.90;;;;;;5014005;28;20948;-63
2021/08/28 00:30:27;;;;;;;12.93;8.87;;;14.60;99.90;;;;;;5015141;28;20481;-64
2021/08/28 00:32:53;;;;;;;12.37;7.63;;;14.60;99.90;;;;;;5015272;28;20838;-64
2021/08/28 00:35:22;;;;;;;10.57;8.30;;;14.60;99.90;;;;;;5015504;28;20449;-64
2021/08/28 00:37:48;;;;;;;11.40;9.37;;;14.60;99.90;;;;;;5015140;28;20453;-64
2021/08/28 00:40:15;;;;;;;14.10;9.00;;;14.60;99.90;;;;;;5015126;28;20465;-64
2021/08/28 00:42:51;;;;;;;12.67;9.70;;;14.60;99.90;;;;;;5015143;28;20815;-64
2021/08/28 00:45:17;;;;;;;11.80;8.27;;;14.70;99.90;;;;;;5015225;28;20449;-63
2021/08/28 00:47:52;;;;;;;9.43;8.33;;;14.70;99.90;;;;;;5014954;28;20946;-64
2021/08/28 00:50:22;;;;;;;18.40;8.17;;;14.70;99.90;;;;;;5015025;28;20489;-65
2021/08/28 00:52:49;;;;;;;12.07;9.23;;;14.70;99.90;;;;;;5014861;28;20942;-64
2021/08/28 00:55:16;;;;;;;12.57;7.73;;;14.70;99.90;;;;;;5015003;28;20449;-64
2021/08/28 00:57:42;;;;;;;12.53;8.40;;;14.80;99.90;;;;;;5014855;28;20453;-64
2021/08/28 01:00:10;;;;;;;16.07;8.40;;;14.80;99.90;;;;;;5014887;28;20461;-63
2021/08/28 01:02:39;;;;;;;10.83;8.17;;;14.80;99.90;;;;;;5014714;28;20446;-64
2021/08/28 01:05:12;;;;;;;12.83;7.93;;;14.80;99.90;;;;;;5015013;28;20446;-64
2021/08/28 01:07:54;;;;;;;8.33;6.77;;;14.80;99.90;;;;;;5014760;28;20456;-64
2021/08/28 01:10:23;;;;;;;7.70;7.00;;;14.80;99.90;;;;;;5014837;28;20477;-63
2021/08/28 01:12:55;;;;;;;11.80;8.43;;;14.80;99.90;;;;;;5014460;28;20449;-63
2021/08/28 01:15:25;;;;;;;18.60;9.53;;;14.80;99.90;;;;;;5014701;28;20954;-64
2021/08/28 01:17:53;;;;;;;14.40;8.13;;;14.80;99.90;;;;;;5014399;28;20528;-65
2021/08/28 01:20:26;;;;;;;11.50;8.53;;;14.90;99.90;;;;;;5014370;28;20820;-64
2021/08/28 01:22:55;;;;;;;14.63;9.80;;;14.90;99.90;;;;;;5014346;28;20454;-63
2021/08/28 01:25:23;;;;;;;13.53;12.13;;;14.90;99.90;;;;;;5014523;28;20446;-64
2021/08/28 01:27:56;;;;;;;23.20;14.23;;;14.90;99.90;;;;;;5014243;28;20577;-64
2021/08/28 01:30:25;;;;;;;15.17;11.30;;;14.90;99.90;;;;;;5014437;28;20482;-65
2021/08/28 01:32:52;;;;;;;16.73;12.93;;;14.90;99.90;;;;;;5013740;28;20461;-64
2021/08/28 01:35:21;;;;;;;19.93;14.30;;;14.90;99.90;;;;;;5014363;28;20924;-64
2021/08/28 01:37:48;;;;;;;17.27;11.83;;;14.80;99.90;;;;;;5013866;28;20466;-63
2021/08/28 01:40:17;;;;;;;18.30;11.37;;;14.90;99.90;;;;;;5013388;28;20476;-64
2021/08/28 01:42:46;;;;;;;16.63;12.33;;;14.90;99.90;;;;;;5014117;28;20806;-64
2021/08/28 01:45:15;;;;;;;21.77;16.27;;;14.90;99.90;;;;;;5014024;28;20453;-64
2021/08/28 01:47:44;;;;;;;18.60;12.63;;;14.90;99.90;;;;;;5013906;28;20450;-64
2021/08/28 01:50:12;;;;;;;20.60;13.27;;;14.90;99.90;;;;;;5013949;28;20551;-64
2021/08/28 01:52:39;;;;;;;16.10;12.17;;;14.90;99.90;;;;;;5013932;28;20453;-63
2021/08/28 01:55:07;;;;;;;20.20;13.80;;;14.80;99.90;;;;;;5014013;28;20810;-64
2021/08/28 01:57:34;;;;;;;16.93;13.27;;;14.80;99.90;;;;;;5013623;28;20939;-64
2021/08/28 02:00:02;;;;;;;18.53;13.00;;;14.80;99.90;;;;;;5013816;28;20469;-64
2021/08/28 02:02:28;;;;;;;18.23;12.17;;;14.80;99.90;;;;;;5013598;28;20553;-63
2021/08/28 02:04:57;;;;;;;19.93;15.40;;;14.80;99.90;;;;;;5013891;28;20453;-64
2021/08/28 02:07:30;;;;;;;18.83;13.70;;;14.80;99.90;;;;;;5013513;28;20449;-64
2021/08/28 02:10:04;;;;;;;24.17;14.20;;;14.80;99.90;;;;;;5013451;28;20824;-65
2021/08/28 02:12:37;;;;;;;31.60;22.43;;;14.80;99.90;;;;;;5013432;28;20446;-64
2021/08/28 02:15:08;;;;;;;27.13;17.70;;;14.80;99.90;;;;;;5013665;28;20450;-64
2021/08/28 02:17:41;;;;;;;27.30;17.77;;;14.80;99.90;;;;;;5013356;28;20450;-63
2021/08/28 02:20:11;;;;;;;24.60;18.27;;;14.80;99.90;;;;;;5013347;28;20474;-64
2021/08/28 02:22:43;;;;;;;28.30;18.47;;;14.80;99.90;;;;;;5013209;28;20481;-64
2021/08/28 02:25:26;;;;;;;27.07;18.60;;;14.80;99.90;;;;;;5013495;28;20454;-64
2021/08/28 02:27:58;;;;;;;23.67;17.90;;;14.80;99.90;;;;;;5013148;28;20566;-64
2021/08/28 02:30:28;;;;;;;21.07;15.80;;;14.80;99.90;;;;;;5013204;28;20492;-64
2021/08/28 02:32:56;;;;;;;24.13;18.33;;;14.90;99.90;;;;;;5013008;28;20442;-64
2021/08/28 02:35:26;;;;;;;27.80;18.27;;;14.90;99.90;;;;;;5013263;28;20923;-64
2021/08/28 02:37:56;;;;;;;29.73;21.17;;;14.90;99.90;;;;;;5012898;28;20450;-63
2021/08/28 02:40:24;;;;;;;25.00;18.43;;;14.90;99.90;;;;;;5013072;28;20470;-63
2021/08/28 02:42:51;;;;;;;34.10;22.40;;;14.90;99.90;;;;;;5012829;28;20454;-63
2021/08/28 02:45:21;;;;;;;33.87;21.17;;;14.90;99.90;;;;;;5012950;28;20861;-63
2021/08/28 02:47:49;;;;;;;31.87;22.33;;;14.90;99.90;;;;;;5013163;28;20442;-64
2021/08/28 02:50:18;;;;;;;38.27;23.17;;;14.90;99.90;;;;;;5012626;28;20835;-64
2021/08/28 02:52:48;;;;;;;36.70;22.67;;;14.90;99.90;;;;;;5012766;28;20814;-63
2021/08/28 02:55:17;;;;;;;37.87;22.57;;;14.90;99.90;;;;;;5012426;28;20446;-64
2021/08/28 02:57:48;;;;;;;40.17;25.47;;;14.90;99.90;;;;;;5012778;28;20483;-64
2021/08/28 03:00:16;;;;;;;49.90;25.00;;;14.90;99.90;;;;;;5012730;28;20465;-64
2021/08/28 03:02:44;;;;;;;42.97;25.20;;;14.90;99.90;;;;;;5012399;28;20449;-64
2021/08/28 03:05:12;;;;;;;32.83;21.80;;;14.90;99.90;;;;;;5012637;28;20454;-63
2021/08/28 03:07:40;;;;;;;36.50;23.50;;;14.90;99.90;;;;;;5012920;28;20469;-64
2021/08/28 03:10:09;;;;;;;37.37;23.30;;;14.90;99.90;;;;;;5012473;28;20482;-65
2021/08/28 03:12:37;;;;;;;39.83;26.60;;;14.90;99.90;;;;;;5012007;28;20865;-65
2021/08/28 03:15:05;;;;;;;32.83;22.93;;;14.90;99.90;;;;;;5012476;28;20446;-65
2021/08/28 03:17:32;;;;;;;44.90;24.77;;;14.90;99.90;;;;;;5012444;28;20453;-64
2021/08/28 03:19:59;;;;;;;36.73;23.37;;;14.90;99.90;;;;;;5012239;28;20984;-64
2021/08/28 03:22:26;;;;;;;35.93;23.90;;;14.90;99.90;;;;;;5011919;28;20457;-65
2021/08/28 03:24:55;;;;;;;37.10;21.87;;;14.90;99.90;;;;;;5012266;28;20441;-64
2021/08/28 03:27:23;;;;;;;34.27;20.50;;;14.90;99.90;;;;;;5012306;28;20441;-64
2021/08/28 03:29:51;;;;;;;30.27;18.53;;;14.90;99.90;;;;;;5012121;28;20489;-64
2021/08/28 03:32:19;;;;;;;32.77;20.00;;;14.90;99.90;;;;;;5011747;28;20450;-64
2021/08/28 03:34:47;;;;;;;28.20;21.73;;;14.90;99.90;;;;;;5012319;28;20812;-64
2021/08/28 03:37:14;;;;;;;38.53;21.60;;;14.90;99.90;;;;;;5012176;28;20815;-64
2021/08/28 03:39:41;;;;;;;30.43;21.50;;;14.90;99.90;;;;;;5012050;28;20462;-64
2021/08/28 03:42:08;;;;;;;35.20;20.80;;;14.90;99.90;;;;;;5011574;28;20450;-64
2021/08/28 03:44:40;;;;;;;29.80;20.97;;;14.90;99.90;;;;;;5011561;28;20457;-64
2021/08/28 03:47:08;;;;;;;30.70;19.23;;;14.90;99.90;;;;;;5011673;28;20454;-64
2021/08/28 03:49:36;;;;;;;38.93;23.33;;;14.90;99.90;;;;;;5011529;28;20508;-65
2021/08/28 03:52:03;;;;;;;33.93;23.30;;;14.90;99.90;;;;;;5011981;28;21004;-64
2021/08/28 03:54:31;;;;;;;37.63;26.20;;;14.90;99.90;;;;;;5011505;28;20453;-64
2021/08/28 03:56:57;;;;;;;31.83;24.40;;;14.90;99.90;;;;;;5011809;28;20445;-64
2021/08/28 03:59:24;;;;;;;37.03;23.90;;;14.90;99.90;;;;;;5011559;28;20470;-63
2021/08/28 04:01:53;;;;;;;36.00;23.17;;;14.90;99.90;;;;;;5011096;28;20445;-63
2021/08/28 04:04:20;;;;;;;32.03;22.90;;;14.90;99.90;;;;;;5011852;28;20499;-63
2021/08/28 04:06:47;;;;;;;38.93;26.20;;;14.90;99.90;;;;;;5011698;28;20962;-63
2021/08/28 04:09:13;;;;;;;39.10;26.83;;;15.00;99.90;;;;;;5011384;28;20470;-64
2021/08/28 04:11:41;;;;;;;37.53;23.07;;;15.00;99.90;;;;;;5011610;28;20473;-63
2021/08/28 04:14:08;;;;;;;40.97;28.97;;;15.00;99.90;;;;;;5011688;28;20512;-63
2021/08/28 04:16:35;;;;;;;34.80;23.87;;;15.00;99.90;;;;;;5011408;28;20446;-63
2021/08/28 04:19:03;;;;;;;38.10;26.30;;;15.00;99.90;;;;;;5011410;28;20474;-63
2021/08/28 04:21:29;;;;;;;29.17;24.63;;;15.00;99.90;;;;;;5010921;28;20468;-63
2021/08/28 04:23:56;;;;;;;37.20;22.43;;;15.00;99.90;;;;;;5011461;28;20450;-63
2021/08/28 04:26:23;;;;;;;33.63;22.40;;;15.00;99.90;;;;;;5011448;28;20446;-62
2021/08/28 04:28:49;;;;;;;32.70;22.00;;;15.00;99.90;;;;;;5011459;28;20474;-63
2021/08/28 04:31:16;;;;;;;30.23;21.17;;;15.00;99.90;;;;;;5011391;28;20488;-64
2021/08/28 04:33:43;;;;;;;33.47;21.20;;;15.00;99.90;;;;;;5011585;28;20916;-63
2021/08/28 04:36:11;;;;;;;31.20;21.90;;;15.00;99.90;;;;;;5011171;28;20864;-67
2021/08/28 04:38:37;;;;;;;31.93;22.13;;;15.00;99.90;;;;;;5011404;28;20452;-66
2021/08/28 04:41:04;;;;;;;31.20;21.60;;;15.00;99.90;;;;;;5011285;28;20448;-67
2021/08/28 04:43:31;;;;;;;25.90;21.27;;;15.00;99.90;;;;;;5011352;28;20667;-67
2021/08/28 04:45:58;;;;;;;25.80;18.57;;;15.00;99.90;;;;;;5011147;28;20450;-65
2021/08/28 04:48:24;;;;;;;26.17;18.50;;;15.00;99.90;;;;;;5011297;28;20461;-67
2021/08/28 04:50:51;;;;;;;32.07;19.77;;;15.00;99.90;;;;;;5010177;28;20532;-66
2021/08/28 04:53:19;;;;;;;23.27;19.20;;;15.00;99.90;;;;;;5009124;28;20446;-64
2021/08/28 04:55:46;;;;;;;25.47;19.00;;;14.90;99.90;;;;;;5010401;28;20453;-65
2021/08/28 04:58:13;;;;;;;29.23;19.33;;;14.90;99.90;;;;;;5011409;28;20560;-64
2021/08/28 05:00:39;;;;;;;20.73;16.93;;;15.00;99.90;;;;;;5011118;28;20882;-64
2021/08/28 05:03:06;;;;;;;21.23;16.37;;;15.00;99.90;;;;;;5011197;28;20450;-64
2021/08/28 05:05:33;;;;;;;19.90;17.03;;;15.00;99.90;;;;;;5011266;28;20453;-64
2021/08/28 05:08:00;;;;;;;27.57;18.43;;;15.00;99.90;;;;;;5011284;28;20446;-65
2021/08/28 05:10:28;;;;;;;22.07;17.00;;;15.00;99.90;;;;;;5011134;28;20482;-64
2021/08/28 05:12:55;;;;;;;22.67;17.90;;;15.00;99.90;;;;;;5011005;28;20481;-64
2021/08/28 05:15:21;;;;;;;21.80;16.73;;;15.10;99.90;;;;;;5013960;28;20448;-63
2021/08/28 05:17:48;;;;;;;26.37;18.13;;;15.00;99.90;;;;;;5014623;28;20484;-64
2021/08/28 05:20:15;;;;;;;24.50;19.37;;;15.10;99.90;;;;;;5043366;23;20896;-62
2021/08/28 05:22:41;;;;;;;24.57;18.33;;;15.10;99.90;;;;;;5034117;28;20440;-61
2021/08/28 05:25:08;;;;;;;23.97;17.13;;;15.10;99.90;;;;;;5034342;28;20490;-61
2021/08/28 05:27:37;;;;;;;21.67;16.87;;;15.10;99.90;;;;;;5034322;28;20444;-61
2021/08/28 05:30:04;;;;;;;16.50;14.60;;;15.00;99.90;;;;;;5034196;28;20574;-62
2021/08/28 05:32:31;;;;;;;21.80;15.57;;;15.00;99.90;;;;;;5034091;28;20445;-63
2021/08/28 05:34:57;;;;;;;16.10;12.63;;;14.90;99.90;;;;;;5034227;28;20452;-62
2021/08/28 05:37:24;;;;;;;17.77;13.93;;;15.00;99.90;;;;;;5034137;28;20448;-63
2021/08/28 05:39:51;;;;;;;15.20;12.73;;;15.00;99.90;;;;;;5033895;28;20465;-63
2021/08/28 05:42:18;;;;;;;14.27;12.17;;;15.00;99.90;;;;;;5033821;28;20452;-62
2021/08/28 05:44:46;;;;;;;25.67;13.20;;;15.00;99.90;;;;;;5034188;28;21167;-63
2021/08/28 05:47:12;;;;;;;10.43;9.00;;;15.00;99.90;;;;;;5033914;28;20464;-63
2021/08/28 05:49:39;;;;;;;14.60;11.37;;;15.00;99.90;;;;;;5033872;28;20476;-63
2021/08/28 05:52:06;;;;;;;18.07;14.07;;;15.00;99.90;;;;;;5033663;28;20484;-62
2021/08/28 05:54:33;;;;;;;18.80;14.47;;;15.10;99.90;;;;;;5033798;28;20441;-62
2021/08/28 05:56:59;;;;;;;16.73;14.43;;;15.10;99.90;;;;;;5033850;28;20437;-62
2021/08/28 05:59:26;;;;;;;21.13;17.07;;;15.20;99.90;;;;;;5033645;28;20985;-62
2021/08/28 06:01:55;;;;;;;22.73;15.60;;;15.20;99.90;;;;;;5033388;28;20460;-62
2021/08/28 06:04:21;;;;;;;23.77;20.67;;;15.30;99.90;;;;;;5033610;28;20453;-62
2021/08/28 06:06:48;;;;;;;25.50;20.37;;;15.30;99.90;;;;;;5033566;28;20452;-62
2021/08/28 06:09:15;;;;;;;26.10;20.70;;;15.40;99.90;;;;;;5033416;28;20488;-63
2021/08/28 06:11:42;;;;;;;23.70;20.43;;;15.50;99.90;;;;;;5033220;28;20578;-62
2021/08/28 06:14:08;;;;;;;25.53;20.67;;;15.50;99.90;;;;;;5033465;28;20829;-62
2021/08/28 06:16:35;;;;;;;27.00;21.43;;;15.60;99.90;;;;;;5033402;28;20449;-62
2021/08/28 06:19:03;;;;;;;22.87;20.43;;;15.70;99.90;;;;;;5033218;28;21127;-62
2021/08/28 06:21:31;;;;;;;22.83;20.07;;;15.80;99.90;;;;;;5033159;28;20437;-59
2021/08/28 06:23:58;;;;;;;26.63;21.97;;;15.90;99.90;;;;;;5033159;28;20477;-61
2021/08/28 06:26:25;;;;;;;23.13;20.20;;;15.90;99.90;;;;;;5032804;28;20456;-62
2021/08/28 06:28:52;;;;;;;25.33;22.63;;;15.90;99.90;;;;;;5033007;28;20453;-61
2021/08/28 06:31:18;;;;;;;25.43;22.60;;;15.90;99.90;;;;;;5032909;28;20499;-60
2021/08/28 06:33:45;;;;;;;24.07;21.67;;;15.90;99.90;;;;;;5032947;28;20452;-63
2021/08/28 06:36:13;;;;;;;27.27;21.63;;;16.00;99.90;;;;;;5032958;28;20467;-62
2021/08/28 06:38:40;;;;;;;28.10;21.97;;;16.10;99.90;;;;;;5032942;28;20452;-62
2021/08/28 06:41:06;;;;;;;24.90;21.30;;;16.10;99.90;;;;;;5032669;28;20456;-62
2021/08/28 06:43:33;;;;;;;25.80;22.40;;;16.10;99.90;;;;;;5032865;28;20448;-62
2021/08/28 06:46:00;;;;;;;25.90;22.00;;;16.10;99.90;;;;;;5032777;28;20441;-62
2021/08/28 06:48:27;;;;;;;23.07;20.73;;;16.00;99.90;;;;;;5032786;28;20828;-60
2021/08/28 06:50:53;;;;;;;25.47;20.00;;;16.10;99.90;;;;;;5032426;28;20485;-64
2021/08/28 06:53:21;;;;;;;29.37;21.47;;;16.10;99.90;;;;;;5032435;28;20452;-61
2021/08/28 06:55:48;;;;;;;22.03;19.33;;;16.10;99.90;;;;;;5032550;28;20833;-63
2021/08/28 06:58:15;;;;;;;27.00;20.67;;;16.10;99.90;;;;;;5032728;28;20935;-62
2021/08/28 07:00:41;;;;;;;24.33;18.90;;;16.20;99.90;;;;;;5032409;28;20480;-62
2021/08/28 07:03:08;;;;;;;23.73;18.90;;;16.20;99.90;;;;;;5032212;28;20445;-61
2021/08/28 07:05:35;;;;;;;23.33;19.03;;;16.30;99.90;;;;;;5032424;28;20445;-60
2021/08/28 07:08:01;;;;;;;22.77;18.37;;;16.30;99.90;;;;;;5032299;28;20448;-61
2021/08/28 07:10:29;;;;;;;19.13;17.43;;;16.30;99.90;;;;;;5032277;28;20469;-62
2021/08/28 07:12:56;;;;;;;21.30;18.07;;;16.30;99.90;;;;;;5032112;28;20940;-60
2021/08/28 07:15:23;;;;;;;19.73;17.83;;;16.40;99.90;;;;;;5032262;28;20456;-62
2021/08/28 07:17:50;;;;;;;22.67;18.50;;;16.50;99.90;;;;;;5032168;28;20449;-60
2021/08/28 07:20:16;;;;;;;18.60;16.70;;;16.60;99.90;;;;;;5031983;28;20484;-62
2021/08/28 07:22:43;;;;;;;15.37;14.00;;;16.60;99.90;;;;;;5031861;28;20961;-62
2021/08/28 07:25:11;;;;;;;16.27;14.93;;;16.70;99.90;;;;;;5032127;28;20460;-61
2021/08/28 07:27:39;;;;;;;18.03;16.13;;;16.70;99.90;;;;;;5032176;28;20441;-61
2021/08/28 07:30:07;;;;;;;21.77;17.67;;;16.80;99.90;;;;;;5031963;28;20472;-60
2021/08/28 07:32:34;;;;;;;17.83;16.00;;;16.70;99.90;;;;;;5031656;28;20484;-62
2021/08/28 07:35:00;;;;;;;17.77;16.10;;;16.70;99.90;;;;;;5031910;28;20498;-61
2021/08/28 07:37:27;;;;;;;18.13;16.40;;;16.80;99.90;;;;;;5031248;28;20943;-62
2021/08/28 07:39:54;;;;;;;18.70;16.77;;;17.00;99.90;;;;;;5031747;28;20473;-63
2021/08/28 07:42:20;;;;;;;18.63;16.87;;;17.10;99.90;;;;;;5031634;28;20445;-61
2021/08/28 07:44:48;;;;;;;20.67;18.20;;;17.10;99.90;;;;;;5031802;28;20453;-62
2021/08/28 07:47:15;;;;;;;19.60;17.70;;;17.20;99.90;;;;;;5031724;28;20441;-61
2021/08/28 07:49:42;;;;;;;21.27;18.77;;;17.40;99.90;;;;;;5031552;28;20858;-60
2021/08/28 07:52:08;;;;;;;20.27;18.57;;;17.30;99.90;;;;;;5031410;28;20520;-60
2021/08/28 07:54:35;;;;;;;19.47;17.90;;;17.40;99.90;;;;;;5031560;28;20946;-62
2021/08/28 07:57:02;;;;;;;18.40;16.87;;;17.50;99.90;;;;;;5031746;28;20471;-60
2021/08/28 07:59:29;;;;;;;18.33;16.93;;;17.60;99.90;;;;;;5031477;28;20472;-62
2021/08/28 08:01:57;;;;;;;18.03;16.60;;;17.50;99.90;;;;;;5031235;28;20441;-61
2021/08/28 08:04:24;;;;;;;17.27;15.67;;;17.60;99.90;;;;;;5031573;28;20449;-62
2021/08/28 08:06:50;;;;;;;17.87;16.03;;;17.60;99.90;;;;;;5031499;28;20441;-62
2021/08/28 08:09:17;;;;;;;16.93;15.63;;;17.60;99.90;;;;;;5031196;28;20473;-62
2021/08/28 08:11:44;;;;;;;15.20;14.10;;;17.90;99.90;;;;;;5031069;28;20483;-60
2021/08/28 08:14:11;;;;;;;16.90;15.50;;;17.90;99.90;;;;;;5031551;28;20444;-61
2021/08/28 08:16:38;;;;;;;15.23;14.13;;;18.10;99.90;;;;;;5031480;28;20449;-60
2021/08/28 08:19:06;;;;;;;15.13;14.10;;;18.20;99.90;;;;;;5031181;28;20449;-61
2021/08/28 08:21:33;;;;;;;14.90;13.93;;;18.40;99.90;;;;;;5031157;28;20445;-59
2021/08/28 08:23:59;;;;;;;16.07;14.93;;;18.30;99.90;;;;;;5031284;28;20456;-60
2021/08/28 08:26:26;;;;;;;15.50;14.37;;;18.10;99.90;;;;;;5031436;28;20946;-62
2021/08/28 08:28:54;;;;;;;17.57;16.30;;;18.10;99.90;;;;;;5031232;28;20449;-61
2021/08/28 08:31:21;;;;;;;17.07;15.93;;;18.10;99.90;;;;;;5031057;28;20481;-60
2021/08/28 08:33:47;;;;;;;16.53;15.33;;;17.90;99.90;;;;;;5031310;28;20453;-61
2021/08/28 08:36:15;;;;;;;15.40;14.50;;;18.10;99.90;;;;;;5031277;28;20444;-60
2021/08/28 08:38:42;;;;;;;16.03;15.03;;;18.60;99.90;;;;;;5031290;28;20452;-63
2021/08/28 08:41:10;;;;;;;18.20;16.60;;;18.90;99.90;;;;;;5030899;28;20469;-62
2021/08/28 08:43:38;;;;;;;16.67;15.47;;;19.10;99.90;;;;;;5031193;28;20934;-61
2021/08/28 08:46:05;;;;;;;17.07;16.10;;;18.80;99.90;;;;;;5031130;28;20817;-62
2021/08/28 08:48:33;;;;;;;17.30;15.73;;;18.80;99.90;;;;;;5032852;28;20449;-59
2021/08/28 08:51:02;;;;;;;16.90;15.60;;;18.50;99.90;;;;;;5034693;28;20943;-61
2021/08/28 08:53:31;;;;;;;15.50;14.60;;;18.30;99.90;;;;;;5034877;28;20453;-62
2021/08/28 08:56:00;;;;;;;15.83;15.03;;;18.30;99.90;;;;;;5035001;28;20452;-60
2021/08/28 08:58:26;;;;;;;17.87;15.93;;;18.40;99.90;;;;;;5034759;28;20473;-60
2021/08/28 09:00:53;;;;;;;16.97;15.87;;;18.60;99.90;;;;;;5034668;28;20832;-61
2021/08/28 09:03:20;;;;;;;16.30;15.20;;;19.00;99.90;;;;;;5034590;28;20445;-60
2021/08/28 09:05:47;;;;;;;18.00;16.90;;;19.10;99.90;;;;;;5034763;28;20457;-62
2021/08/28 09:08:14;;;;;;;16.60;15.20;;;19.30;99.90;;;;;;5034613;28;20455;-60
2021/08/28 09:10:42;;;;;;;17.07;16.17;;;19.20;99.90;;;;;;5034555;28;20993;-61
2021/08/28 09:13:12;;;;;;;16.80;15.43;;;19.40;99.90;;;;;;5034261;28;20482;-61
2021/08/28 09:15:43;;;;;;;15.83;14.73;;;19.40;99.90;;;;;;5034503;28;20874;-61
2021/08/28 09:18:10;;;;;;;16.00;15.20;;;19.30;99.90;;;;;;5034562;28;20445;-61
2021/08/28 09:20:37;;;;;;;17.53;16.53;;;19.30;99.90;;;;;;5034241;28;20473;-60
2021/08/28 09:23:05;;;;;;;18.87;17.30;;;19.20;99.90;;;;;;5034203;28;20804;-62
2021/08/28 09:25:32;;;;;;;17.30;16.20;;;19.50;99.90;;;;;;5034304;28;20459;-62
2021/08/28 09:28:01;;;;;;;17.07;16.33;;;20.20;99.90;;;;;;5034395;28;20444;-61
2021/08/28 09:30:30;;;;;;;16.70;15.87;;;20.70;99.90;;;;;;5034227;28;20468;-61
2021/08/28 09:32:59;;;;;;;17.30;16.40;;;20.70;99.90;;;;;;5033676;28;20477;-59
2021/08/28 09:35:27;;;;;;;17.30;16.40;;;20.70;99.90;;;;;;5034139;28;20452;-61
2021/08/28 09:37:55;;;;;;;17.03;16.23;;;20.30;99.90;;;;;;5034131;28;20445;-61
2021/08/28 09:40:23;;;;;;;16.90;16.20;;;20.10;99.90;;;;;;5033965;28;20472;-59
2021/08/28 09:42:54;;;;;;;17.20;16.40;;;20.10;99.90;;;;;;5033856;28;20445;-60
2021/08/28 09:45:24;;;;;;;17.70;16.90;;;20.20;99.90;;;;;;5033931;28;20535;-62
2021/08/28 09:47:52;;;;;;;17.00;16.20;;;20.30;99.90;;;;;;5033978;28;20493;-61
2021/08/28 09:50:25;;;;;;;17.70;16.60;;;20.40;99.90;;;;;;5033796;28;20497;-61
2021/08/28 09:52:52;;;;;;;17.13;16.33;;;20.40;99.90;;;;;;5033454;28;20507;-61
2021/08/28 09:55:21;;;;;;;18.20;17.30;;;20.20;99.90;;;;;;5033872;28;20464;-60
2021/08/28 09:57:50;;;;;;;18.87;17.77;;;19.90;99.90;;;;;;5033761;28;20449;-60
2021/08/28 10:00:17;;;;;;;19.47;18.43;;;19.50;99.90;;;;;;5032812;28;20480;-62
2021/08/28 10:02:57;;;;;;;18.57;17.57;;;19.20;99.90;;;;;;5033447;28;20441;-60
2021/08/28 10:05:26;;;;;;;18.03;17.03;;;18.90;99.90;;;;;;5033543;28;20444;-62
2021/08/28 10:07:56;;;;;;;18.07;16.97;;;18.70;99.90;;;;;;5033480;28;20953;-61
2021/08/28 10:10:24;;;;;;;16.97;15.93;;;18.40;99.90;;;;;;5033463;28;20473;-62
2021/08/28 10:12:51;;;;;;;14.90;14.10;;;18.30;99.90;;;;;;5033169;28;20511;-61
2021/08/28 10:15:20;;;;;;;5.70;5.30;;;18.00;99.90;;;;;;5033299;28;20445;-62
2021/08/28 10:17:49;;;;;;;6.73;3.43;;;17.60;99.90;;;;;;5033431;28;20449;-60
2021/08/28 10:20:18;;;;;;;6.07;5.67;;;17.40;99.90;;;;;;5032972;28;20476;-62
2021/08/28 10:22:47;;;;;;;6.83;6.20;;;17.20;99.90;;;;;;5033156;28;20502;-62
2021/08/28 10:25:17;;;;;;;6.43;5.73;;;17.10;99.90;;;;;;5033167;28;20630;-62
2021/08/28 10:27:45;;;;;;;7.70;7.10;;;17.00;99.90;;;;;;5033239;28;20444;-62
2021/08/28 10:30:13;;;;;;;6.67;6.27;;;17.00;99.90;;;;;;5033050;28;20472;-62
2021/08/28 10:32:40;;;;;;;6.03;5.73;;;17.00;99.90;;;;;;5032753;28;20480;-61
2021/08/28 10:35:08;;;;;;;5.70;5.40;;;17.20;99.90;;;;;;5032993;28;20448;-63
2021/08/28 10:37:36;;;;;;;5.63;5.23;;;16.90;99.90;;;;;;5032929;28;20448;-62
2021/08/28 10:40:06;;;;;;;5.77;5.47;;;17.00;99.90;;;;;;5032930;28;20536;-62
2021/08/28 10:42:33;;;;;;;6.43;6.03;;;17.00;99.90;;;;;;5032582;28;20441;-62
2021/08/28 10:45:02;;;;;;;6.10;5.70;;;17.30;99.90;;;;;;5032903;28;20449;-62
2021/08/28 10:47:31;;;;;;;6.00;5.70;;;17.60;99.90;;;;;;5032819;28;20464;-63
2021/08/28 10:50:02;;;;;;;6.50;6.10;;;17.70;99.90;;;;;;5032710;28;20469;-62
2021/08/28 10:52:29;;;;;;;6.50;6.00;;;17.60;99.90;;;;;;5032413;28;20484;-62
2021/08/28 10:54:59;;;;;;;7.50;7.10;;;17.60;99.90;;;;;;5032570;28;20449;-62
2021/08/28 10:57:28;;;;;;;7.60;7.20;;;18.10;99.90;;;;;;5032616;28;20448;-60
2021/08/28 11:00:02;;;;;;;8.97;8.30;;;19.00;99.90;;;;;;5032505;28;20477;-62
2021/08/28 11:02:53;;;;;;;8.93;8.53;;;18.90;99.90;;;;;;5032296;28;20448;-60
2021/08/28 11:05:22;;;;;;;9.17;8.77;;;19.20;99.90;;;;;;5032430;28;20484;-62
2021/08/28 11:07:49;;;;;;;11.20;10.70;;;19.30;99.90;;;;;;5032468;28;20441;-61
2021/08/28 11:10:22;;;;;;;10.70;10.23;;;19.60;99.90;;;;;;5032226;28;20492;-61
2021/08/28 11:12:58;;;;;;;13.20;12.70;;;20.60;99.90;;;;;;5031958;28;20828;-61
2021/08/28 11:15:42;;;;;;;14.30;13.70;;;20.70;99.90;;;;;;5032280;28;20444;-61
2021/08/28 11:18:10;;;;;;;14.20;13.60;;;20.80;99.90;;;;;;5032211;28;20456;-62
2021/08/28 11:20:39;;;;;;;14.70;14.20;;;20.90;99.90;;;;;;5044157;23;20497;-66
2021/08/28 11:23:08;;;;;;;15.73;15.03;;;21.00;99.90;;;;;;5024692;28;20476;-66
2021/08/28 11:25:38;;;;;;;16.10;15.40;;;21.00;99.90;;;;;;5032088;28;20445;-65
2021/08/28 11:28:06;;;;;;;16.57;15.87;;;20.90;99.90;;;;;;5032137;28;20441;-66
2021/08/28 11:30:57;;;;;;;17.57;16.87;;;21.20;99.90;;;;;;5031915;28;20465;-65
2021/08/28 11:33:26;;;;;;;17.90;17.20;;;21.60;99.90;;;;;;5021552;28;20484;-65
2021/08/28 11:35:55;;;;;;;17.67;16.77;;;22.10;99.90;;;;;;5031865;28;20448;-65
2021/08/28 11:38:32;;;;;;;19.43;18.47;;;22.10;99.90;;;;;;5031839;28;20479;-66
2021/08/28 11:41:01;;;;;;;20.53;19.63;;;22.40;99.90;;;;;;5031729;28;20483;-65
2021/08/28 11:43:32;;;;;;;21.20;20.30;;;23.40;99.90;;;;;;5031746;28;20910;-65
2021/08/28 11:46:02;;;;;;;20.93;20.03;;;22.90;99.90;;;;;;5031791;28;20449;-65
2021/08/28 11:48:30;;;;;;;20.13;19.23;;;22.60;99.90;;;;;;5031792;28;20449;-65
2021/08/28 11:50:57;;;;;;;22.07;21.07;;;22.10;99.90;;;;;;5031421;28;20492;-65
2021/08/28 11:53:27;;;;;;;20.20;19.20;;;21.80;99.90;;;;;;5031698;28;20841;-65
2021/08/28 11:56:06;;;;;;;20.47;19.40;;;21.30;99.90;;;;;;5031664;28;20842;-65
2021/08/28 11:58:33;;;;;;;19.90;19.07;;;21.00;99.90;;;;;;5031589;28;20436;-66
2021/08/28 12:01:00;;;;;;;19.50;18.60;;;20.90;99.90;;;;;;5031593;28;20472;-65
2021/08/28 12:03:26;;;;;;;20.37;19.47;;;20.70;99.90;;;;;;5031495;28;20449;-65
2021/08/28 12:05:54;;;;;;;18.87;18.07;;;20.70;99.90;;;;;;5031559;28;20437;-64
2021/08/28 12:08:21;;;;;;;20.30;19.40;;;22.00;99.90;;;;;;5031596;28;20445;-65
2021/08/28 12:10:48;;;;;;;21.30;20.30;;;24.80;99.90;;;;;;5031397;28;20582;-64
2021/08/28 12:13:16;;;;;;;20.77;19.87;;;24.70;99.90;;;;;;5031145;28;21012;-66
2021/08/28 12:15:47;;;;;;;20.23;19.40;;;24.20;99.90;;;;;;5031372;28;20780;-64
2021/08/28 12:18:27;;;;;;;20.63;19.63;;;23.40;99.90;;;;;;5031396;28;20867;-64
2021/08/28 12:20:53;;;;;;;21.10;20.20;;;23.30;99.90;;;;;;5031083;28;20982;-66
2021/08/28 12:23:20;;;;;;;23.80;22.77;;;26.00;99.90;;;;;;5032760;28;20441;-65
2021/08/28 12:25:47;;;;;;;22.93;22.03;;;29.10;94.70;;;;;;5035461;28;20448;-64
2021/08/28 12:28:14;;;;;;;24.53;23.47;;;31.10;75.80;;;;;;5035324;28;20451;-65
2021/08/28 12:30:43;;;;;;;23.63;22.63;;;33.00;66.60;;;;;;5035432;28;20464;-64
2021/08/28 12:33:13;;;;;;;25.23;24.20;;;33.30;59.00;;;;;;5035106;28;20488;-66
2021/08/28 12:35:39;;;;;;;23.30;22.20;;;31.20;59.70;;;;;;5035351;28;20519;-67